CNF3 weather

Pendleton Airport
Pendleton, Ontario, Canada

Public forecast

Using degrees Celsius for public forecast. Weather courtesy of forecast.io.

METAR (pilot weather report)

Report is more than 6 hours old.

Closest report is Ottawa / Gatineau Airport, 19.8 nm (36.6 km) W. Retrieved 2019/05/23 01:00 UTC (8 hours ago):

CYND 230100Z VRB02KT 15SM BKN110 16/07 A3013 RMK AC7 LAST STFD OBS/NEXT 231100 UTC SLP206

TAF (pilot weather forecast)

Forecast is more than 12 hours old.

Closest forecast is Ottawa / Gatineau Airport, 19.8 nm (36.6 km) W. Retrieved 2019/05/22 18:00 UTC (15 hours ago):

TAF CYND 221738Z 2218/2301 VRB03KT P6SM FEW050 BKN210 FM221900 18008KT P6SM BKN170 FM230000 VRB03KT P6SM BKN120 RMK NXT FCST WILL BE ISSUED AT 231245Z